createdAt,value
2023-03-22T00:00:56.518Z,45.46
2023-03-22T00:05:59.362Z,45.80
2023-03-22T00:11:03.671Z,45.75
2023-03-22T00:16:07.323Z,45.93
2023-03-22T00:21:12.234Z,46.03
2023-03-22T00:26:16.393Z,46.13
2023-03-22T00:31:19.904Z,46.50
2023-03-22T00:36:22.732Z,46.15
2023-03-22T00:41:28.975Z,46.39
2023-03-22T00:46:31.802Z,46.30
2023-03-22T00:51:34.641Z,46.39
2023-03-22T00:56:38.917Z,46.63
2023-03-22T01:01:47.761Z,46.57
2023-03-22T01:06:50.601Z,46.33
2023-03-22T01:11:54.871Z,46.64
2023-03-22T01:16:57.820Z,46.54
2023-03-22T01:22:00.826Z,46.62
2023-03-22T01:27:05.814Z,46.58
2023-03-22T01:32:08.575Z,46.54
2023-03-22T01:37:11.597Z,46.71
2023-03-22T01:42:22.306Z,46.96
2023-03-22T01:47:27.342Z,46.97
2023-03-22T01:52:30.170Z,47.05
2023-03-22T01:57:41.718Z,47.05
2023-03-22T02:02:50.085Z,47.30
2023-03-22T02:08:01.140Z,47.36
2023-03-22T02:13:18.436Z,47.67
2023-03-22T02:18:39.891Z,47.57
2023-03-22T02:23:58.568Z,47.57
2023-03-22T02:29:03.452Z,47.90
2023-03-22T02:34:32.845Z,47.92
2023-03-22T02:39:39.432Z,47.70
2023-03-22T02:44:43.330Z,47.88
2023-03-22T02:49:49.403Z,48.20
2023-03-22T02:54:54.313Z,48.05
2023-03-22T02:59:57.372Z,48.18
2023-03-22T03:05:00.874Z,48.29
2023-03-22T03:10:05.946Z,48.25
2023-03-22T03:15:13.676Z,48.52
2023-03-22T03:20:24.195Z,48.33
2023-03-22T03:25:30.732Z,48.50
2023-03-22T03:30:35.386Z,48.67
2023-03-22T03:35:39.388Z,48.68
2023-03-22T03:40:45.242Z,48.82
2023-03-22T03:45:48.215Z,48.69
2023-03-22T03:50:52.884Z,48.79
2023-03-22T03:55:57.663Z,48.87
2023-03-22T04:01:03.954Z,48.96
2023-03-22T04:06:27.221Z,48.94
2023-03-22T04:11:36.797Z,48.97
2023-03-22T04:16:40.723Z,48.99
2023-03-22T04:21:47.055Z,49.29
2023-03-22T04:26:52.555Z,49.44
2023-03-22T04:32:00.246Z,49.38
2023-03-22T04:37:10.838Z,49.24
2023-03-22T04:42:25.577Z,49.01
2023-03-22T04:47:39.564Z,49.24
2023-03-22T04:52:43.686Z,49.09
2023-03-22T04:57:48.536Z,49.12
2023-03-22T05:02:51.692Z,49.29
2023-03-22T05:08:18.186Z,49.38
2023-03-22T05:13:25.896Z,49.13
2023-03-22T05:18:29.336Z,49.33
2023-03-22T05:23:34.254Z,49.28
2023-03-22T05:28:40.255Z,49.07
2023-03-22T05:33:51.427Z,49.12
2023-03-22T05:38:55.873Z,49.25
2023-03-22T05:44:00.920Z,49.18
2023-03-22T05:49:04.466Z,49.19
2023-03-22T05:54:07.851Z,49.08
2023-03-22T05:59:17.898Z,49.13
2023-03-22T06:04:22.147Z,49.12
2023-03-22T06:09:34.426Z,49.22
2023-03-22T06:14:41.943Z,49.11
2023-03-22T06:19:54.358Z,49.12
2023-03-22T06:24:57.323Z,48.94
2023-03-22T06:30:12.440Z,49.13
2023-03-22T06:35:34.063Z,49.18
2023-03-22T06:40:37.825Z,49.21
2023-03-22T06:45:42.751Z,48.86
2023-03-22T06:50:46.190Z,49.13
2023-03-22T06:55:54.943Z,49.17
2023-03-22T07:01:01.354Z,48.95
2023-03-22T07:06:08.647Z,49.04
2023-03-22T07:11:14.950Z,48.89
2023-03-22T07:16:21.977Z,49.05
2023-03-22T07:21:31.464Z,48.91
2023-03-22T07:26:39.058Z,49.07
2023-03-22T07:31:45.728Z,49.08
2023-03-22T07:37:11.619Z,48.78
2023-03-22T07:42:16.860Z,42.54
2023-03-22T07:47:47.268Z,42.71
2023-03-22T07:52:50.179Z,43.37
2023-03-22T07:57:54.963Z,44.96
2023-03-22T08:02:59.983Z,45.88
2023-03-22T08:08:21.868Z,46.21
2023-03-22T08:13:24.894Z,45.17
2023-03-22T08:18:29.335Z,44.47
2023-03-22T08:23:41.269Z,44.13
2023-03-22T08:29:03.431Z,44.16
2023-03-22T08:34:11.378Z,44.22
2023-03-22T08:39:14.680Z,44.06
2023-03-22T08:44:35.046Z,44.12
2023-03-22T08:49:41.736Z,44.09
2023-03-22T08:54:53.432Z,44.22
2023-03-22T09:00:17.854Z,44.00
2023-03-22T09:05:30.437Z,44.26
2023-03-22T09:10:33.439Z,44.30
2023-03-22T09:15:36.616Z,44.47
2023-03-22T09:20:52.908Z,42.61
2023-03-22T09:26:01.316Z,44.42
2023-03-22T09:31:05.824Z,44.27
2023-03-22T09:36:11.849Z,44.45
2023-03-22T09:41:17.053Z,44.34
2023-03-22T09:46:21.370Z,44.61
2023-03-22T09:51:30.824Z,44.56
2023-03-22T09:56:33.707Z,43.05
2023-03-22T10:01:38.965Z,41.60
2023-03-22T10:06:43.656Z,41.82
2023-03-22T10:11:47.785Z,41.94
2023-03-22T10:16:51.594Z,41.48
2023-03-22T10:21:56.271Z,41.78
2023-03-22T10:26:59.088Z,41.42
2023-03-22T10:32:10.871Z,42.40
2023-03-22T10:37:16.416Z,42.60
2023-03-22T10:42:21.509Z,42.80
2023-03-22T10:47:28.399Z,42.79
2023-03-22T10:52:39.565Z,42.21
2023-03-22T10:57:43.124Z,42.41
2023-03-22T11:02:48.497Z,41.51
2023-03-22T11:07:52.625Z,41.38
2023-03-22T11:12:57.105Z,41.65
2023-03-22T11:18:01.371Z,41.82
2023-03-22T11:23:06.920Z,41.98
2023-03-22T11:28:10.968Z,41.96
2023-03-22T11:33:18.491Z,41.57
2023-03-22T11:38:29.463Z,41.08
2023-03-22T11:43:34.120Z,40.79
2023-03-22T11:48:37.422Z,40.26
2023-03-22T11:53:42.682Z,39.84
2023-03-22T11:58:55.052Z,39.77
2023-03-22T12:03:58.816Z,39.95
2023-03-22T12:09:04.756Z,39.87
2023-03-22T12:14:09.530Z,39.71
2023-03-22T12:19:18.778Z,39.98
2023-03-22T12:24:28.168Z,39.40
2023-03-22T12:29:30.953Z,39.08
2023-03-22T12:34:38.339Z,38.93
2023-03-22T12:39:44.571Z,38.61
2023-03-22T12:45:02.218Z,38.37
2023-03-22T12:50:08.832Z,38.58
2023-03-22T12:55:19.134Z,38.44
2023-03-22T13:00:22.414Z,38.51
2023-03-22T13:05:28.596Z,37.68
2023-03-22T13:11:03.209Z,38.15
2023-03-22T13:16:15.763Z,37.94
2023-03-22T13:21:19.130Z,37.12
2023-03-22T13:26:23.448Z,37.59
2023-03-22T13:31:39.249Z,37.18
2023-03-22T13:36:49.572Z,36.81
2023-03-22T13:42:04.992Z,36.86
2023-03-22T13:47:09.493Z,37.34
2023-03-22T13:52:25.659Z,36.91
2023-03-22T13:57:42.832Z,37.27
2023-03-22T14:02:46.261Z,38.03
2023-03-22T14:07:51.258Z,38.69
2023-03-22T14:12:58.199Z,39.28
2023-03-22T14:18:01.905Z,39.02
